createdAt,value
2023-02-27T06:39:50.830Z,21.39
2023-02-27T06:40:50.820Z,21.44
2023-02-27T06:41:50.856Z,21.46
2023-02-27T06:42:50.801Z,21.49
2023-02-27T06:43:50.797Z,21.52
2023-02-27T06:44:50.791Z,21.53
2023-02-27T06:45:50.792Z,21.55
2023-02-27T06:46:50.740Z,21.58
2023-02-27T06:47:50.734Z,21.60
2023-02-27T06:48:50.744Z,21.65
2023-02-27T06:49:50.706Z,21.69
2023-02-27T06:50:50.686Z,21.73
2023-02-27T06:51:50.670Z,21.76
2023-02-27T06:52:50.655Z,21.79
2023-02-27T06:53:50.617Z,21.82
2023-02-27T06:54:50.604Z,21.83
2023-02-27T06:55:50.586Z,21.86
2023-02-27T06:56:50.582Z,21.88
2023-02-27T06:57:50.562Z,21.89
2023-02-27T06:58:50.542Z,21.92
2023-02-27T06:59:50.511Z,21.94
2023-02-27T07:00:50.492Z,21.96
2023-02-27T07:01:50.474Z,21.98
2023-02-27T07:02:50.451Z,22.00
2023-02-27T07:03:50.456Z,22.01
2023-02-27T07:04:50.449Z,22.03
2023-02-27T07:05:50.394Z,22.06
2023-02-27T07:07:34.985Z,22.06
2023-02-27T07:07:51.351Z,22.08
2023-02-27T07:09:00.902Z,22.09
2023-02-27T07:09:51.312Z,22.10
2023-02-27T07:10:50.424Z,22.12
2023-02-27T07:11:50.269Z,22.15
2023-02-27T07:12:50.273Z,22.16
2023-02-27T07:13:50.227Z,22.18
2023-02-27T07:14:50.211Z,22.19
2023-02-27T07:15:50.186Z,22.22
2023-02-27T07:16:50.162Z,22.23
2023-02-27T07:17:50.138Z,22.25
2023-02-27T07:18:50.110Z,22.27
2023-02-27T07:19:50.095Z,22.29
2023-02-27T07:20:50.064Z,22.30
2023-02-27T07:21:50.040Z,22.32
2023-02-27T07:22:50.031Z,22.32
2023-02-27T07:23:49.970Z,22.34
2023-02-27T07:24:49.936Z,22.36
2023-02-27T07:25:49.905Z,22.37
2023-02-27T07:26:49.884Z,22.40
2023-02-27T07:27:49.885Z,22.41
2023-02-27T07:28:49.844Z,22.43
2023-02-27T07:29:49.815Z,22.44
2023-02-27T07:30:49.799Z,22.46
2023-02-27T07:31:49.759Z,22.47
2023-02-27T07:32:49.788Z,22.49
2023-02-27T07:34:49.683Z,22.50
2023-02-27T07:35:49.741Z,22.51
2023-02-27T07:36:49.618Z,22.53
2023-02-27T07:37:49.586Z,22.54
2023-02-27T07:38:49.586Z,22.55
2023-02-27T07:39:49.516Z,22.57
2023-02-27T07:40:49.496Z,22.59
2023-02-27T07:41:49.463Z,22.58
2023-02-27T07:42:50.691Z,22.58
2023-02-27T07:43:49.638Z,22.59
2023-02-27T07:44:49.616Z,22.62
2023-02-27T07:45:49.576Z,22.64
2023-02-27T07:46:49.618Z,22.68
2023-02-27T07:47:49.517Z,22.69
2023-02-27T07:48:49.477Z,22.67
2023-02-27T07:49:49.491Z,22.66
2023-02-27T07:50:49.410Z,22.67
2023-02-27T07:51:49.370Z,22.68
2023-02-27T07:52:49.337Z,22.70
2023-02-27T07:53:49.313Z,22.68
2023-02-27T07:54:49.289Z,22.68
2023-02-27T07:55:49.318Z,22.68
2023-02-27T07:56:49.240Z,22.69
2023-02-27T07:57:49.214Z,22.69
2023-02-27T07:58:49.251Z,22.69
2023-02-27T07:59:49.079Z,22.69
2023-02-27T08:00:49.084Z,22.70
2023-02-27T08:01:49.011Z,22.69
2023-02-27T08:02:49.168Z,22.70
2023-02-27T08:03:48.936Z,22.72
2023-02-27T08:04:48.926Z,22.75
2023-02-27T08:05:48.846Z,22.74
2023-02-27T08:06:48.827Z,22.75
2023-02-27T08:07:48.793Z,22.76
2023-02-27T08:08:48.729Z,22.77
2023-02-27T08:09:48.685Z,22.78
2023-02-27T08:10:48.656Z,22.81
2023-02-27T08:11:49.320Z,22.82
2023-02-27T08:12:48.577Z,22.84
2023-02-27T08:13:59.952Z,22.86
2023-02-27T08:15:48.474Z,22.91
2023-02-27T08:16:48.426Z,22.93
2023-02-27T08:17:48.380Z,22.93
2023-02-27T08:18:48.346Z,22.95
2023-02-27T08:19:48.313Z,22.97
2023-02-27T08:20:48.258Z,22.99
2023-02-27T08:21:48.229Z,23.04
2023-02-27T08:22:48.192Z,23.06
2023-02-27T08:23:48.139Z,23.05
2023-02-27T08:24:48.114Z,23.06
2023-02-27T08:25:48.063Z,23.07
2023-02-27T08:26:48.053Z,23.08
2023-02-27T08:27:47.994Z,23.10
2023-02-27T08:28:47.961Z,23.09
2023-02-27T08:29:47.926Z,23.10
2023-02-27T08:31:47.957Z,23.08
2023-02-27T08:32:47.817Z,23.10
2023-02-27T08:33:49.598Z,23.12
2023-02-27T08:35:47.724Z,23.14
2023-02-27T08:36:47.686Z,23.14
2023-02-27T08:37:47.610Z,23.15
2023-02-27T08:38:47.565Z,23.18
2023-02-27T08:39:47.528Z,23.19
2023-02-27T08:40:47.494Z,23.18
2023-02-27T08:41:47.443Z,23.03
2023-02-27T08:42:47.563Z,22.61
2023-02-27T08:43:47.405Z,22.17
2023-02-27T08:44:47.387Z,21.62
2023-02-27T08:45:47.536Z,21.11
2023-02-27T08:46:47.477Z,20.68
2023-02-27T08:47:47.502Z,20.41
2023-02-27T08:48:47.451Z,20.17
2023-02-27T08:49:47.578Z,20.05
2023-02-27T08:50:47.444Z,19.97
2023-02-27T08:51:47.565Z,19.49
2023-02-27T08:52:47.636Z,19.14
2023-02-27T08:53:47.614Z,18.95
2023-02-27T09:46:48.527Z,21.70
2023-02-27T09:47:48.516Z,21.72
2023-02-27T09:48:48.481Z,21.74
2023-02-27T09:49:48.512Z,21.75
2023-02-27T09:50:48.467Z,21.78
2023-02-27T09:51:48.427Z,21.80
2023-02-27T09:52:48.449Z,21.81
2023-02-27T09:53:48.415Z,21.81
2023-02-27T09:54:48.366Z,21.83
2023-02-27T09:55:48.355Z,21.84
2023-02-27T09:56:48.320Z,21.85
2023-02-27T09:57:48.305Z,21.88
2023-02-27T09:58:48.289Z,21.90
2023-02-27T09:59:48.273Z,21.92
2023-02-27T10:00:48.275Z,21.94
2023-02-27T10:01:48.237Z,21.96
2023-02-27T10:02:48.196Z,21.98
2023-02-27T10:03:48.182Z,21.99
2023-02-27T10:04:48.162Z,22.00
2023-02-27T10:05:48.262Z,22.01
2023-02-27T10:06:48.133Z,22.02
2023-02-27T10:07:48.111Z,22.03
2023-02-27T10:08:48.078Z,22.05
2023-02-27T10:09:48.069Z,22.06
2023-02-27T10:10:48.042Z,22.09
2023-02-27T10:11:48.022Z,22.10
2023-02-27T10:12:47.991Z,22.13
2023-02-27T10:13:47.998Z,22.14
2023-02-27T10:14:47.966Z,22.16
2023-02-27T10:15:47.939Z,22.16
2023-02-27T10:16:47.951Z,22.17
2023-02-27T10:17:47.916Z,22.18
2023-02-27T10:18:47.881Z,22.19
2023-02-27T10:19:47.836Z,22.20
2023-02-27T10:20:47.816Z,22.22
2023-02-27T10:21:47.807Z,22.23
2023-02-27T10:22:47.754Z,22.26
2023-02-27T10:23:47.741Z,22.27
2023-02-27T10:24:47.711Z,22.28
2023-02-27T10:25:47.688Z,22.30
2023-02-27T10:26:47.670Z,22.30
2023-02-27T10:27:47.639Z,22.32
2023-02-27T10:28:47.636Z,22.33
2023-02-27T10:29:47.596Z,22.35
2023-02-27T10:30:47.623Z,22.38
2023-02-27T10:31:47.582Z,22.40
2023-02-27T10:32:47.515Z,22.41
2023-02-27T10:33:47.501Z,22.43
2023-02-27T10:34:47.478Z,22.46
2023-02-27T10:35:47.469Z,22.46
2023-02-27T10:36:47.440Z,22.47
2023-02-27T10:37:47.386Z,22.49
2023-02-27T10:38:47.357Z,22.50
2023-02-27T10:39:47.322Z,22.51
2023-02-27T10:40:47.290Z,22.53
2023-02-27T10:41:47.274Z,22.54
2023-02-27T10:42:47.237Z,22.53
2023-02-27T10:43:47.250Z,22.52
2023-02-27T10:44:47.179Z,22.53
2023-02-27T10:45:47.156Z,22.54
2023-02-27T10:46:47.124Z,22.56
2023-02-27T10:47:47.069Z,22.60
2023-02-27T10:48:47.037Z,22.61
2023-02-27T10:49:47.042Z,22.65
2023-02-27T10:50:46.977Z,22.66
2023-02-27T10:51:46.964Z,22.68
2023-02-27T10:52:46.910Z,22.70
2023-02-27T10:53:46.861Z,22.73
2023-02-27T10:54:46.809Z,22.76
2023-02-27T10:55:46.778Z,22.78
2023-02-27T10:56:46.748Z,22.80
2023-02-27T10:57:46.698Z,22.82
2023-02-27T10:58:46.647Z,22.85
2023-02-27T10:59:46.605Z,22.87
2023-02-27T11:00:46.598Z,22.91
2023-02-27T11:01:46.560Z,22.81
2023-02-27T11:02:46.547Z,22.33
2023-02-27T11:03:46.465Z,22.33
2023-02-27T11:04:46.486Z,22.39
2023-02-27T11:05:46.405Z,22.45
2023-02-27T11:06:46.466Z,22.51
2023-02-27T11:07:46.336Z,22.58
2023-02-27T11:08:46.405Z,22.65
2023-02-27T11:09:46.262Z,22.72
2023-02-27T11:10:46.240Z,22.77
2023-02-27T11:11:46.235Z,22.81
2023-02-27T11:12:46.222Z,22.86
2023-02-27T11:13:46.103Z,22.92
2023-02-27T11:14:46.051Z,22.98
2023-02-27T11:15:46.021Z,23.03
2023-02-27T11:16:45.948Z,23.07
2023-02-27T11:17:45.904Z,23.12
2023-02-27T11:18:45.871Z,23.16
2023-02-27T11:19:45.825Z,23.20
2023-02-27T11:20:45.845Z,23.22
2023-02-27T11:21:45.758Z,23.26
2023-02-27T11:57:45.919Z,23.34
2023-02-27T13:20:40.619Z,22.82
2023-02-27T13:21:40.570Z,22.83
2023-02-27T13:22:40.556Z,22.83
2023-02-27T13:23:40.507Z,22.84
2023-02-27T13:24:40.461Z,22.85
2023-02-27T13:25:40.444Z,22.86
2023-02-27T13:26:40.388Z,22.87
2023-02-27T13:27:40.351Z,22.88
2023-02-27T13:28:40.338Z,22.89
2023-02-27T13:29:40.292Z,22.91
2023-02-27T13:30:40.241Z,22.90
2023-02-27T13:31:40.319Z,22.89
2023-02-27T13:32:44.084Z,22.89
2023-02-27T13:33:40.115Z,22.88
2023-02-27T13:34:40.083Z,22.88
2023-02-27T13:35:40.088Z,22.89
2023-02-27T13:36:40.021Z,22.89
2023-02-27T13:37:39.979Z,22.87
2023-02-27T13:38:39.937Z,22.87
2023-02-27T13:39:39.902Z,22.86
2023-02-27T13:40:39.869Z,22.86
2023-02-27T13:41:39.847Z,22.85
2023-02-27T13:42:39.784Z,22.84
2023-02-27T13:43:51.441Z,22.83
2023-02-27T13:45:39.704Z,22.81
2023-02-27T13:46:39.752Z,22.80
2023-02-27T13:47:39.618Z,22.78
2023-02-27T13:48:39.579Z,22.78
2023-02-27T13:49:39.518Z,22.78
2023-02-27T13:50:39.488Z,22.78
2023-02-27T13:51:39.439Z,22.79
2023-02-27T13:52:39.409Z,22.78
2023-02-27T13:53:39.371Z,22.78
2023-02-27T13:54:39.348Z,22.76
2023-02-27T13:55:39.294Z,22.75
2023-02-27T13:56:39.251Z,22.76
2023-02-27T13:57:39.215Z,22.76
2023-02-27T13:58:39.178Z,22.76
2023-02-27T13:59:39.144Z,22.75
2023-02-27T14:00:39.091Z,22.76
2023-02-27T14:01:39.150Z,22.77
2023-02-27T14:02:46.560Z,22.76
2023-02-27T14:03:39.982Z,22.75
2023-02-27T14:04:38.947Z,22.76
2023-02-27T14:05:38.905Z,22.75
2023-02-27T14:06:38.881Z,22.76
2023-02-27T14:07:38.848Z,22.76
2023-02-27T14:08:38.804Z,22.74
2023-02-27T14:09:38.767Z,22.75
2023-02-27T14:10:38.721Z,22.74
2023-02-27T14:11:38.689Z,22.74
2023-02-27T14:12:45.348Z,22.73
2023-02-27T14:13:39.646Z,22.74
2023-02-27T14:14:38.609Z,22.74
2023-02-27T14:15:38.568Z,22.74
2023-02-27T14:16:38.556Z,22.74
2023-02-27T14:17:38.503Z,22.74
2023-02-27T14:18:38.478Z,22.74
2023-02-27T14:19:38.441Z,22.74
2023-02-27T14:20:38.412Z,22.74
2023-02-27T14:21:38.398Z,22.74
2023-02-27T14:22:38.359Z,22.73
2023-02-27T14:23:38.327Z,22.72
2023-02-27T14:24:38.307Z,22.71
2023-02-27T14:25:38.242Z,22.70
2023-02-27T14:26:38.238Z,22.70
2023-02-27T14:27:38.173Z,22.70
2023-02-27T14:28:38.144Z,22.71
2023-02-27T14:29:38.112Z,22.71
2023-02-27T14:30:38.077Z,22.71
2023-02-27T14:31:38.127Z,22.70
2023-02-27T14:32:38.021Z,22.70
2023-02-27T14:33:40.754Z,22.69
2023-02-27T14:34:37.941Z,22.69
2023-02-27T14:35:37.980Z,22.70
2023-02-27T14:36:37.888Z,22.70
2023-02-27T14:37:37.860Z,22.70
2023-02-27T14:38:37.821Z,22.71
2023-02-27T14:39:37.780Z,22.71
2023-02-27T14:40:37.760Z,22.71
2023-02-27T14:41:37.721Z,22.71
2023-02-27T14:42:37.737Z,22.71
2023-02-27T14:43:37.648Z,22.71
2023-02-27T14:44:37.625Z,22.71
2023-02-27T14:45:37.613Z,22.70
2023-02-27T14:46:37.689Z,22.70
2023-02-27T14:47:37.546Z,22.69
2023-02-27T14:48:37.517Z,22.69
2023-02-27T14:49:37.483Z,22.69
2023-02-27T14:50:37.462Z,22.68
2023-02-27T14:51:37.428Z,22.68
2023-02-27T14:52:37.386Z,22.68
2023-02-27T14:53:37.384Z,22.67
2023-02-27T14:54:37.320Z,22.67
2023-02-27T14:55:37.296Z,22.67
2023-02-27T14:56:37.261Z,22.69
2023-02-27T14:57:37.236Z,22.67
2023-02-27T14:58:37.193Z,22.66
2023-02-27T14:59:37.161Z,22.66
2023-02-27T15:00:37.131Z,22.66
2023-02-27T15:01:37.180Z,22.66
2023-02-27T15:02:37.063Z,22.66
2023-02-27T15:03:37.057Z,22.64
2023-02-27T15:04:37.023Z,22.64
2023-02-27T15:05:36.954Z,22.64
2023-02-27T15:06:36.903Z,22.63
2023-02-27T15:07:36.878Z,22.63
2023-02-27T15:08:36.852Z,22.62
2023-02-27T15:09:36.804Z,22.62
2023-02-27T15:10:36.773Z,22.62
2023-02-27T15:11:36.740Z,22.61
2023-02-27T15:12:36.740Z,22.61
2023-02-27T15:13:36.687Z,22.60
2023-02-27T15:14:36.782Z,22.60
2023-02-27T15:15:36.642Z,22.58
2023-02-27T15:16:36.836Z,22.58
2023-02-27T15:17:36.551Z,22.58
2023-02-27T15:18:36.511Z,22.57
2023-02-27T15:19:36.482Z,22.57
2023-02-27T15:20:36.446Z,22.57
2023-02-27T15:21:36.414Z,22.57
2023-02-27T15:22:39.371Z,22.57
2023-02-27T15:23:36.356Z,22.57
2023-02-27T15:24:49.251Z,22.57
2023-02-27T15:25:37.312Z,22.55
2023-02-27T15:26:36.255Z,22.57
2023-02-27T15:27:36.223Z,22.58
2023-02-27T15:28:36.203Z,22.57
2023-02-27T15:29:36.229Z,22.57
2023-02-27T15:30:36.152Z,22.56
2023-02-27T15:31:36.168Z,22.57
2023-02-27T15:32:36.090Z,22.57
2023-02-27T15:33:36.050Z,22.56
2023-02-27T15:34:36.033Z,22.55
2023-02-27T15:35:36.025Z,22.55
2023-02-27T15:36:35.947Z,22.55
2023-02-27T15:37:35.944Z,22.55
2023-02-27T15:38:35.871Z,22.54
2023-02-27T15:39:35.840Z,22.55
2023-02-27T15:40:35.795Z,22.54
2023-02-27T15:41:35.762Z,22.53
2023-02-27T15:42:35.731Z,22.55
2023-02-27T16:30:34.256Z,22.40
2023-02-27T16:31:34.301Z,22.40
2023-02-27T19:22:30.080Z,22.05
2023-02-27T21:52:27.097Z,21.86
2023-02-27T22:22:26.671Z,21.86
2023-02-27T22:23:26.650Z,21.86
2023-02-27T22:24:26.626Z,21.86
2023-02-27T22:25:26.610Z,21.86
2023-02-27T22:26:26.606Z,21.87
2023-02-27T22:27:26.561Z,21.86
2023-02-27T22:28:26.541Z,21.87
2023-02-27T22:29:26.538Z,21.86
2023-02-27T22:30:26.510Z,21.86
2023-02-27T22:31:26.677Z,21.85
2023-02-27T22:32:26.515Z,21.85
2023-02-27T22:33:26.459Z,21.85
2023-02-27T22:34:26.436Z,21.86
2023-02-27T22:35:26.450Z,21.86
2023-02-27T22:36:26.408Z,21.86
2023-02-27T22:37:26.390Z,21.86
2023-02-27T22:38:26.432Z,21.86
2023-02-27T22:39:26.364Z,21.86
2023-02-27T22:40:26.353Z,21.86
2023-02-27T22:41:26.557Z,21.86
2023-02-27T22:42:26.312Z,21.85
2023-02-27T22:43:26.290Z,21.85
2023-02-27T22:44:26.272Z,21.86
2023-02-27T22:45:26.270Z,21.86
2023-02-27T22:46:26.257Z,21.86
2023-02-27T22:47:26.211Z,21.86
2023-02-27T22:48:26.197Z,21.86
2023-02-27T22:49:26.174Z,21.86
2023-02-27T22:50:26.163Z,21.86
2023-02-27T22:51:26.384Z,21.86
2023-02-27T22:52:26.128Z,21.86
2023-02-27T22:53:26.108Z,21.85
2023-02-27T22:54:26.091Z,21.85
2023-02-27T22:55:26.070Z,21.85
2023-02-27T22:56:26.079Z,21.85
2023-02-27T22:57:26.026Z,21.84
2023-02-27T22:58:26.009Z,21.85
2023-02-27T22:59:25.987Z,21.84
2023-02-27T23:00:25.970Z,21.84
2023-02-27T23:01:26.092Z,21.84
2023-02-27T23:02:25.920Z,21.84
2023-02-27T23:03:25.910Z,21.82
2023-02-27T23:04:25.879Z,21.84
2023-02-27T23:05:25.857Z,21.84
2023-02-27T23:06:25.848Z,21.84
2023-02-27T23:07:25.828Z,21.83
2023-02-27T23:08:25.815Z,21.83
2023-02-27T23:09:25.787Z,21.84
2023-02-27T23:10:25.782Z,21.84
2023-02-27T23:11:25.781Z,21.84
2023-02-27T23:12:27.427Z,21.84
2023-02-27T23:13:25.741Z,21.84
2023-02-27T23:14:25.719Z,21.83
